sensor_id;sensor_type;location;lat;lon;timestamp;P1;durP1;ratioP1;P2;durP2;ratioP2
6523;SDS011;3295;38.928;-77.052;2023-08-31T00:01:40;5.40;;;3.40;;
6523;SDS011;3295;38.928;-77.052;2023-08-31T00:04:07;5.60;;;3.37;;
6523;SDS011;3295;38.928;-77.052;2023-08-31T00:06:39;8.03;;;3.23;;
6523;SDS011;3295;38.928;-77.052;2023-08-31T00:09:07;5.43;;;3.10;;
6523;SDS011;3295;38.928;-77.052;2023-08-31T00:11:35;5.23;;;3.10;;
6523;SDS011;3295;38.928;-77.052;2023-08-31T00:14:02;5.10;;;3.03;;
6523;SDS011;3295;38.928;-77.052;2023-08-31T00:16:29;5.10;;;3.03;;
6523;SDS011;3295;38.928;-77.052;2023-08-31T00:18:58;4.83;;;3.30;;
6523;SDS011;3295;38.928;-77.052;2023-08-31T00:21:25;6.17;;;3.40;;
6523;SDS011;3295;38.928;-77.052;2023-08-31T00:23:52;5.47;;;3.23;;
6523;SDS011;3295;38.928;-77.052;2023-08-31T00:26:19;6.10;;;3.33;;
6523;SDS011;3295;38.928;-77.052;2023-08-31T00:28:47;5.23;;;3.50;;
6523;SDS011;3295;38.928;-77.052;2023-08-31T00:31:14;6.23;;;3.40;;
6523;SDS011;3295;38.928;-77.052;2023-08-31T00:33:41;5.37;;;3.40;;
6523;SDS011;3295;38.928;-77.052;2023-08-31T00:36:10;4.37;;;3.20;;
6523;SDS011;3295;38.928;-77.052;2023-08-31T00:38:37;6.43;;;3.97;;
6523;SDS011;3295;38.928;-77.052;2023-08-31T00:41:04;6.17;;;3.90;;
6523;SDS011;3295;38.928;-77.052;2023-08-31T00:43:31;7.17;;;3.57;;
6523;SDS011;3295;38.928;-77.052;2023-08-31T00:45:59;5.43;;;3.70;;
6523;SDS011;3295;38.928;-77.052;2023-08-31T00:48:26;5.90;;;3.60;;
6523;SDS011;3295;38.928;-77.052;2023-08-31T00:50:53;5.83;;;3.70;;
6523;SDS011;3295;38.928;-77.052;2023-08-31T00:53:22;6.67;;;3.40;;
6523;SDS011;3295;38.928;-77.052;2023-08-31T00:55:50;6.63;;;3.70;;
6523;SDS011;3295;38.928;-77.052;2023-08-31T00:58:18;5.57;;;3.43;;
6523;SDS011;3295;38.928;-77.052;2023-08-31T01:00:47;7.00;;;3.80;;
6523;SDS011;3295;38.928;-77.052;2023-08-31T01:03:18;5.53;;;3.33;;
6523;SDS011;3295;38.928;-77.052;2023-08-31T01:05:50;5.70;;;3.50;;
6523;SDS011;3295;38.928;-77.052;2023-08-31T01:08:22;5.30;;;3.57;;
6523;SDS011;3295;38.928;-77.052;2023-08-31T01:10:55;5.70;;;3.23;;
6523;SDS011;3295;38.928;-77.052;2023-08-31T01:13:25;5.30;;;3.20;;
6523;SDS011;3295;38.928;-77.052;2023-08-31T01:15:54;5.87;;;3.70;;
6523;SDS011;3295;38.928;-77.052;2023-08-31T01:18:23;5.67;;;3.47;;
6523;SDS011;3295;38.928;-77.052;2023-08-31T01:20:54;5.33;;;3.27;;
6523;SDS011;3295;38.928;-77.052;2023-08-31T01:23:22;7.10;;;3.60;;
6523;SDS011;3295;38.928;-77.052;2023-08-31T01:25:56;6.57;;;3.57;;
6523;SDS011;3295;38.928;-77.052;2023-08-31T01:28:24;6.23;;;3.40;;
6523;SDS011;3295;38.928;-77.052;2023-08-31T01:30:51;6.10;;;3.60;;
6523;SDS011;3295;38.928;-77.052;2023-08-31T01:33:19;5.53;;;3.57;;
6523;SDS011;3295;38.928;-77.052;2023-08-31T01:35:46;5.43;;;3.40;;
6523;SDS011;3295;38.928;-77.052;2023-08-31T01:38:16;4.83;;;2.70;;
6523;SDS011;3295;38.928;-77.052;2023-08-31T01:40:47;5.13;;;2.93;;
6523;SDS011;3295;38.928;-77.052;2023-08-31T01:43:17;4.53;;;3.03;;
6523;SDS011;3295;38.928;-77.052;2023-08-31T01:45:45;5.23;;;2.90;;
6523;SDS011;3295;38.928;-77.052;2023-08-31T01:48:13;5.17;;;2.97;;
6523;SDS011;3295;38.928;-77.052;2023-08-31T01:50:40;4.17;;;2.60;;
6523;SDS011;3295;38.928;-77.052;2023-08-31T01:53:09;4.53;;;2.50;;
6523;SDS011;3295;38.928;-77.052;2023-08-31T01:55:37;3.97;;;2.33;;
6523;SDS011;3295;38.928;-77.052;2023-08-31T01:58:04;4.57;;;2.20;;
6523;SDS011;3295;38.928;-77.052;2023-08-31T02:00:33;4.30;;;2.40;;
6523;SDS011;3295;38.928;-77.052;2023-08-31T02:03:02;4.63;;;2.50;;
6523;SDS011;3295;38.928;-77.052;2023-08-31T02:05:29;3.67;;;2.20;;
6523;SDS011;3295;38.928;-77.052;2023-08-31T02:07:57;3.13;;;2.20;;
6523;SDS011;3295;38.928;-77.052;2023-08-31T02:10:24;3.37;;;2.30;;
6523;SDS011;3295;38.928;-77.052;2023-08-31T02:12:51;2.70;;;1.80;;
6523;SDS011;3295;38.928;-77.052;2023-08-31T02:15:19;2.90;;;1.83;;
6523;SDS011;3295;38.928;-77.052;2023-08-31T02:17:47;5.57;;;2.20;;
6523;SDS011;3295;38.928;-77.052;2023-08-31T02:20:14;3.20;;;1.90;;
6523;SDS011;3295;38.928;-77.052;2023-08-31T02:22:42;2.47;;;1.80;;
6523;SDS011;3295;38.928;-77.052;2023-08-31T02:25:09;3.80;;;2.07;;
6523;SDS011;3295;38.928;-77.052;2023-08-31T02:27:37;3.10;;;1.80;;
6523;SDS011;3295;38.928;-77.052;2023-08-31T02:30:05;2.53;;;1.80;;
6523;SDS011;3295;38.928;-77.052;2023-08-31T02:32:33;2.57;;;1.90;;
6523;SDS011;3295;38.928;-77.052;2023-08-31T02:35:02;2.60;;;1.97;;
6523;SDS011;3295;38.928;-77.052;2023-08-31T02:37:29;2.37;;;1.67;;
6523;SDS011;3295;38.928;-77.052;2023-08-31T02:39:58;1.80;;;1.40;;
6523;SDS011;3295;38.928;-77.052;2023-08-31T02:42:25;2.23;;;1.60;;
6523;SDS011;3295;38.928;-77.052;2023-08-31T02:44:52;2.40;;;1.80;;
6523;SDS011;3295;38.928;-77.052;2023-08-31T02:47:20;1.57;;;1.40;;
6523;SDS011;3295;38.928;-77.052;2023-08-31T02:49:47;2.03;;;1.60;;
6523;SDS011;3295;38.928;-77.052;2023-08-31T02:52:16;1.97;;;1.40;;
6523;SDS011;3295;38.928;-77.052;2023-08-31T02:54:43;4.57;;;1.57;;
6523;SDS011;3295;38.928;-77.052;2023-08-31T02:57:10;2.07;;;1.57;;
6523;SDS011;3295;38.928;-77.052;2023-08-31T02:59:37;1.73;;;1.30;;
6523;SDS011;3295;38.928;-77.052;2023-08-31T03:02:04;2.03;;;1.60;;
6523;SDS011;3295;38.928;-77.052;2023-08-31T03:04:32;2.17;;;1.50;;
6523;SDS011;3295;38.928;-77.052;2023-08-31T03:06:59;3.33;;;1.47;;
6523;SDS011;3295;38.928;-77.052;2023-08-31T03:09:27;1.97;;;1.50;;
6523;SDS011;3295;38.928;-77.052;2023-08-31T03:11:53;1.47;;;1.20;;
6523;SDS011;3295;38.928;-77.052;2023-08-31T03:14:20;1.77;;;1.20;;
6523;SDS011;3295;38.928;-77.052;2023-08-31T03:16:48;1.33;;;1.20;;
6523;SDS011;3295;38.928;-77.052;2023-08-31T03:19:15;3.57;;;2.30;;
6523;SDS011;3295;38.928;-77.052;2023-08-31T03:21:42;2.90;;;1.70;;
6523;SDS011;3295;38.928;-77.052;2023-08-31T03:24:09;2.10;;;1.40;;
6523;SDS011;3295;38.928;-77.052;2023-08-31T03:26:38;1.53;;;1.27;;
6523;SDS011;3295;38.928;-77.052;2023-08-31T03:29:05;3.43;;;1.20;;
6523;SDS011;3295;38.928;-77.052;2023-08-31T03:31:33;1.47;;;1.10;;
6523;SDS011;3295;38.928;-77.052;2023-08-31T03:34:00;1.23;;;1.13;;
6523;SDS011;3295;38.928;-77.052;2023-08-31T03:36:27;1.23;;;1.00;;
6523;SDS011;3295;38.928;-77.052;2023-08-31T03:38:54;1.10;;;0.97;;
6523;SDS011;3295;38.928;-77.052;2023-08-31T03:41:21;2.00;;;1.13;;
6523;SDS011;3295;38.928;-77.052;2023-08-31T03:43:51;1.10;;;1.00;;
6523;SDS011;3295;38.928;-77.052;2023-08-31T03:46:18;6.60;;;1.27;;
6523;SDS011;3295;38.928;-77.052;2023-08-31T03:48:45;2.97;;;1.00;;
6523;SDS011;3295;38.928;-77.052;2023-08-31T03:51:12;1.10;;;1.00;;
6523;SDS011;3295;38.928;-77.052;2023-08-31T03:53:39;1.80;;;0.90;;
6523;SDS011;3295;38.928;-77.052;2023-08-31T03:56:07;1.13;;;1.03;;
6523;SDS011;3295;38.928;-77.052;2023-08-31T03:58:34;1.07;;;0.97;;
6523;SDS011;3295;38.928;-77.052;2023-08-31T04:01:03;1.20;;;1.00;;
6523;SDS011;3295;38.928;-77.052;2023-08-31T04:03:30;1.20;;;1.10;;
6523;SDS011;3295;38.928;-77.052;2023-08-31T04:05:56;1.23;;;1.03;;
6523;SDS011;3295;38.928;-77.052;2023-08-31T04:08:23;1.03;;;0.80;;
6523;SDS011;3295;38.928;-77.052;2023-08-31T04:10:50;1.93;;;1.00;;
6523;SDS011;3295;38.928;-77.052;2023-08-31T04:13:18;1.40;;;1.00;;
6523;SDS011;3295;38.928;-77.052;2023-08-31T04:15:45;1.07;;;0.97;;
6523;SDS011;3295;38.928;-77.052;2023-08-31T04:18:13;1.50;;;1.10;;
6523;SDS011;3295;38.928;-77.052;2023-08-31T04:20:47;1.70;;;1.00;;
6523;SDS011;3295;38.928;-77.052;2023-08-31T04:23:15;1.00;;;0.80;;
6523;SDS011;3295;38.928;-77.052;2023-08-31T04:25:42;0.70;;;0.70;;
6523;SDS011;3295;38.928;-77.052;2023-08-31T04:28:09;1.23;;;0.90;;
6523;SDS011;3295;38.928;-77.052;2023-08-31T04:30:36;2.40;;;2.00;;
6523;SDS011;3295;38.928;-77.052;2023-08-31T04:33:04;0.60;;;0.60;;
6523;SDS011;3295;38.928;-77.052;2023-08-31T04:35:33;0.90;;;0.90;;
6523;SDS011;3295;38.928;-77.052;2023-08-31T04:38:00;0.97;;;0.90;;
6523;SDS011;3295;38.928;-77.052;2023-08-31T04:40:27;1.00;;;0.80;;
6523;SDS011;3295;38.928;-77.052;2023-08-31T04:42:55;0.77;;;0.77;;
6523;SDS011;3295;38.928;-77.052;2023-08-31T04:45:23;1.03;;;0.90;;
6523;SDS011;3295;38.928;-77.052;2023-08-31T04:47:50;1.10;;;0.83;;
6523;SDS011;3295;38.928;-77.052;2023-08-31T04:50:17;0.80;;;0.80;;
6523;SDS011;3295;38.928;-77.052;2023-08-31T04:52:46;0.80;;;0.80;;
6523;SDS011;3295;38.928;-77.052;2023-08-31T04:55:13;0.80;;;0.80;;
6523;SDS011;3295;38.928;-77.052;2023-08-31T04:57:40;0.80;;;0.80;;
6523;SDS011;3295;38.928;-77.052;2023-08-31T05:00:07;0.70;;;0.70;;
6523;SDS011;3295;38.928;-77.052;2023-08-31T05:02:36;0.90;;;0.90;;
6523;SDS011;3295;38.928;-77.052;2023-08-31T05:05:04;0.77;;;0.77;;
6523;SDS011;3295;38.928;-77.052;2023-08-31T05:07:31;0.80;;;0.80;;
6523;SDS011;3295;38.928;-77.052;2023-08-31T05:10:00;0.77;;;0.70;;
6523;SDS011;3295;38.928;-77.052;2023-08-31T05:12:27;0.70;;;0.70;;
6523;SDS011;3295;38.928;-77.052;2023-08-31T05:14:54;1.23;;;0.93;;
6523;SDS011;3295;38.928;-77.052;2023-08-31T05:17:21;0.70;;;0.70;;
6523;SDS011;3295;38.928;-77.052;2023-08-31T05:19:49;0.60;;;0.60;;
6523;SDS011;3295;38.928;-77.052;2023-08-31T05:22:16;0.90;;;0.90;;
6523;SDS011;3295;38.928;-77.052;2023-08-31T05:24:43;0.70;;;0.70;;
6523;SDS011;3295;38.928;-77.052;2023-08-31T05:27:12;2.50;;;0.80;;
6523;SDS011;3295;38.928;-77.052;2023-08-31T05:29:39;0.70;;;0.70;;
6523;SDS011;3295;38.928;-77.052;2023-08-31T05:32:06;0.70;;;0.70;;
6523;SDS011;3295;38.928;-77.052;2023-08-31T05:34:33;0.73;;;0.73;;
6523;SDS011;3295;38.928;-77.052;2023-08-31T05:37:03;0.70;;;0.70;;
6523;SDS011;3295;38.928;-77.052;2023-08-31T05:39:31;1.60;;;0.80;;
6523;SDS011;3295;38.928;-77.052;2023-08-31T05:41:58;0.70;;;0.70;;
6523;SDS011;3295;38.928;-77.052;2023-08-31T05:44:27;0.83;;;0.80;;
6523;SDS011;3295;38.928;-77.052;2023-08-31T05:46:54;1.00;;;0.90;;
6523;SDS011;3295;38.928;-77.052;2023-08-31T05:49:21;0.60;;;0.60;;
6523;SDS011;3295;38.928;-77.052;2023-08-31T05:51:49;0.70;;;0.70;;
6523;SDS011;3295;38.928;-77.052;2023-08-31T05:54:16;0.80;;;0.70;;
6523;SDS011;3295;38.928;-77.052;2023-08-31T05:56:43;0.70;;;0.70;;
6523;SDS011;3295;38.928;-77.052;2023-08-31T05:59:10;0.70;;;0.70;;
6523;SDS011;3295;38.928;-77.052;2023-08-31T06:01:39;1.90;;;0.90;;
6523;SDS011;3295;38.928;-77.052;2023-08-31T06:04:07;0.73;;;0.73;;
6523;SDS011;3295;38.928;-77.052;2023-08-31T06:06:35;0.80;;;0.80;;
6523;SDS011;3295;38.928;-77.052;2023-08-31T06:09:03;0.60;;;0.60;;
6523;SDS011;3295;38.928;-77.052;2023-08-31T06:11:31;0.80;;;0.80;;
6523;SDS011;3295;38.928;-77.052;2023-08-31T06:13:58;1.57;;;0.77;;
6523;SDS011;3295;38.928;-77.052;2023-08-31T06:16:26;0.70;;;0.70;;
6523;SDS011;3295;38.928;-77.052;2023-08-31T06:18:54;0.83;;;0.83;;
6523;SDS011;3295;38.928;-77.052;2023-08-31T06:21:21;0.70;;;0.70;;
6523;SDS011;3295;38.928;-77.052;2023-08-31T06:23:48;0.90;;;0.90;;
6523;SDS011;3295;38.928;-77.052;2023-08-31T06:26:16;0.80;;;0.80;;
6523;SDS011;3295;38.928;-77.052;2023-08-31T06:28:43;0.93;;;0.90;;
6523;SDS011;3295;38.928;-77.052;2023-08-31T06:31:10;0.70;;;0.70;;
6523;SDS011;3295;38.928;-77.052;2023-08-31T06:33:37;0.83;;;0.83;;
6523;SDS011;3295;38.928;-77.052;2023-08-31T06:36:06;3.73;;;0.90;;
6523;SDS011;3295;38.928;-77.052;2023-08-31T06:38:33;0.97;;;0.90;;
6523;SDS011;3295;38.928;-77.052;2023-08-31T06:41:01;0.80;;;0.80;;
6523;SDS011;3295;38.928;-77.052;2023-08-31T06:43:29;1.07;;;0.93;;
6523;SDS011;3295;38.928;-77.052;2023-08-31T06:45:57;1.00;;;0.90;;
6523;SDS011;3295;38.928;-77.052;2023-08-31T06:48:24;0.80;;;0.80;;
6523;SDS011;3295;38.928;-77.052;2023-08-31T06:50:51;0.77;;;0.77;;
6523;SDS011;3295;38.928;-77.052;2023-08-31T06:53:20;1.10;;;1.00;;
6523;SDS011;3295;38.928;-77.052;2023-08-31T06:55:47;1.37;;;0.70;;
6523;SDS011;3295;38.928;-77.052;2023-08-31T06:58:14;1.20;;;0.90;;
6523;SDS011;3295;38.928;-77.052;2023-08-31T07:00:42;0.80;;;0.80;;
6523;SDS011;3295;38.928;-77.052;2023-08-31T07:03:09;0.90;;;0.90;;
6523;SDS011;3295;38.928;-77.052;2023-08-31T07:05:36;1.00;;;0.90;;
6523;SDS011;3295;38.928;-77.052;2023-08-31T07:08:08;0.90;;;0.90;;
6523;SDS011;3295;38.928;-77.052;2023-08-31T07:10:36;1.10;;;0.90;;
6523;SDS011;3295;38.928;-77.052;2023-08-31T07:13:04;1.10;;;1.00;;
6523;SDS011;3295;38.928;-77.052;2023-08-31T07:15:31;0.90;;;0.90;;
6523;SDS011;3295;38.928;-77.052;2023-08-31T07:17:58;3.37;;;0.80;;
6523;SDS011;3295;38.928;-77.052;2023-08-31T07:20:25;0.93;;;0.80;;
6523;SDS011;3295;38.928;-77.052;2023-08-31T07:22:52;0.80;;;0.80;;
6523;SDS011;3295;38.928;-77.052;2023-08-31T07:25:20;1.10;;;1.00;;
6523;SDS011;3295;38.928;-77.052;2023-08-31T07:27:49;1.63;;;0.90;;
6523;SDS011;3295;38.928;-77.052;2023-08-31T07:30:16;0.83;;;0.83;;
6523;SDS011;3295;38.928;-77.052;2023-08-31T07:32:43;1.10;;;1.00;;
6523;SDS011;3295;38.928;-77.052;2023-08-31T07:35:10;2.40;;;1.10;;
6523;SDS011;3295;38.928;-77.052;2023-08-31T07:37:37;1.20;;;1.10;;
6523;SDS011;3295;38.928;-77.052;2023-08-31T07:40:05;1.07;;;0.97;;
6523;SDS011;3295;38.928;-77.052;2023-08-31T07:42:35;1.23;;;1.13;;
6523;SDS011;3295;38.928;-77.052;2023-08-31T07:45:04;1.17;;;1.07;;
6523;SDS011;3295;38.928;-77.052;2023-08-31T07:47:32;0.90;;;0.90;;
6523;SDS011;3295;38.928;-77.052;2023-08-31T07:49:59;1.10;;;1.00;;
6523;SDS011;3295;38.928;-77.052;2023-08-31T07:52:26;1.90;;;1.10;;
6523;SDS011;3295;38.928;-77.052;2023-08-31T07:54:54;0.93;;;0.90;;
6523;SDS011;3295;38.928;-77.052;2023-08-31T07:57:21;0.90;;;0.90;;
6523;SDS011;3295;38.928;-77.052;2023-08-31T07:59:48;1.07;;;0.90;;
6523;SDS011;3295;38.928;-77.052;2023-08-31T08:02:17;1.00;;;0.90;;
6523;SDS011;3295;38.928;-77.052;2023-08-31T08:04:45;1.00;;;0.90;;
6523;SDS011;3295;38.928;-77.052;2023-08-31T08:07:12;1.17;;;0.97;;
6523;SDS011;3295;38.928;-77.052;2023-08-31T08:09:39;1.47;;;1.30;;
6523;SDS011;3295;38.928;-77.052;2023-08-31T08:12:07;1.40;;;1.07;;
6523;SDS011;3295;38.928;-77.052;2023-08-31T08:14:34;1.20;;;1.10;;
6523;SDS011;3295;38.928;-77.052;2023-08-31T08:17:01;1.07;;;0.90;;
6523;SDS011;3295;38.928;-77.052;2023-08-31T08:19:30;1.30;;;1.10;;
6523;SDS011;3295;38.928;-77.052;2023-08-31T08:21:57;1.17;;;1.07;;
6523;SDS011;3295;38.928;-77.052;2023-08-31T08:24:24;1.00;;;0.90;;
6523;SDS011;3295;38.928;-77.052;2023-08-31T08:26:51;1.47;;;1.07;;
6523;SDS011;3295;38.928;-77.052;2023-08-31T08:29:18;0.90;;;0.90;;
6523;SDS011;3295;38.928;-77.052;2023-08-31T08:31:46;1.83;;;1.30;;
6523;SDS011;3295;38.928;-77.052;2023-08-31T08:34:13;1.57;;;1.10;;
6523;SDS011;3295;38.928;-77.052;2023-08-31T08:36:41;2.10;;;1.20;;
6523;SDS011;3295;38.928;-77.052;2023-08-31T08:39:08;1.27;;;1.10;;
6523;SDS011;3295;38.928;-77.052;2023-08-31T08:41:36;1.60;;;1.30;;
6523;SDS011;3295;38.928;-77.052;2023-08-31T08:44:03;1.20;;;1.10;;
6523;SDS011;3295;38.928;-77.052;2023-08-31T08:46:33;1.37;;;1.13;;
6523;SDS011;3295;38.928;-77.052;2023-08-31T08:49:00;1.93;;;1.20;;
6523;SDS011;3295;38.928;-77.052;2023-08-31T08:51:28;1.60;;;1.20;;
6523;SDS011;3295;38.928;-77.052;2023-08-31T08:53:57;1.63;;;1.27;;
6523;SDS011;3295;38.928;-77.052;2023-08-31T08:56:25;1.50;;;1.20;;
6523;SDS011;3295;38.928;-77.052;2023-08-31T08:58:53;1.13;;;1.03;;
6523;SDS011;3295;38.928;-77.052;2023-08-31T09:01:20;1.50;;;1.23;;
6523;SDS011;3295;38.928;-77.052;2023-08-31T09:03:49;1.63;;;1.30;;
6523;SDS011;3295;38.928;-77.052;2023-08-31T09:06:16;3.10;;;1.30;;
6523;SDS011;3295;38.928;-77.052;2023-08-31T09:08:43;1.43;;;1.10;;
6523;SDS011;3295;38.928;-77.052;2023-08-31T09:11:20;1.20;;;1.10;;
6523;SDS011;3295;38.928;-77.052;2023-08-31T09:13:49;1.47;;;1.20;;
6523;SDS011;3295;38.928;-77.052;2023-08-31T09:16:23;2.10;;;1.60;;
6523;SDS011;3295;38.928;-77.052;2023-08-31T09:18:50;1.50;;;1.40;;
6523;SDS011;3295;38.928;-77.052;2023-08-31T09:21:18;1.80;;;1.30;;
6523;SDS011;3295;38.928;-77.052;2023-08-31T09:23:47;1.40;;;1.30;;
6523;SDS011;3295;38.928;-77.052;2023-08-31T09:26:14;1.97;;;1.50;;
6523;SDS011;3295;38.928;-77.052;2023-08-31T09:28:43;1.63;;;1.40;;
6523;SDS011;3295;38.928;-77.052;2023-08-31T09:31:11;1.50;;;1.23;;
6523;SDS011;3295;38.928;-77.052;2023-08-31T09:33:38;1.83;;;1.50;;
6523;SDS011;3295;38.928;-77.052;2023-08-31T09:36:15;1.77;;;1.50;;
6523;SDS011;3295;38.928;-77.052;2023-08-31T09:38:43;2.57;;;1.50;;
6523;SDS011;3295;38.928;-77.052;2023-08-31T09:41:10;1.40;;;1.23;;
6523;SDS011;3295;38.928;-77.052;2023-08-31T09:43:37;1.60;;;1.30;;
6523;SDS011;3295;38.928;-77.052;2023-08-31T09:46:06;2.10;;;1.50;;
6523;SDS011;3295;38.928;-77.052;2023-08-31T09:48:33;2.53;;;1.30;;
6523;SDS011;3295;38.928;-77.052;2023-08-31T09:51:03;1.97;;;1.47;;
6523;SDS011;3295;38.928;-77.052;2023-08-31T09:53:31;1.90;;;1.50;;
6523;SDS011;3295;38.928;-77.052;2023-08-31T09:55:58;1.30;;;1.20;;
6523;SDS011;3295;38.928;-77.052;2023-08-31T09:58:26;1.80;;;1.40;;
6523;SDS011;3295;38.928;-77.052;2023-08-31T10:00:56;1.77;;;1.27;;
6523;SDS011;3295;38.928;-77.052;2023-08-31T10:03:25;1.40;;;1.30;;
6523;SDS011;3295;38.928;-77.052;2023-08-31T10:05:53;1.57;;;1.30;;
6523;SDS011;3295;38.928;-77.052;2023-08-31T10:08:20;2.10;;;1.40;;
6523;SDS011;3295;38.928;-77.052;2023-08-31T10:10:49;2.07;;;1.40;;
6523;SDS011;3295;38.928;-77.052;2023-08-31T10:13:16;2.17;;;1.30;;
6523;SDS011;3295;38.928;-77.052;2023-08-31T10:15:45;1.83;;;1.30;;
6523;SDS011;3295;38.928;-77.052;2023-08-31T10:18:13;1.40;;;1.30;;
6523;SDS011;3295;38.928;-77.052;2023-08-31T10:20:43;1.37;;;1.20;;
6523;SDS011;3295;38.928;-77.052;2023-08-31T10:23:11;1.73;;;1.43;;
6523;SDS011;3295;38.928;-77.052;2023-08-31T10:28:24;1.63;;;1.30;;
6523;SDS011;3295;38.928;-77.052;2023-08-31T10:31:02;2.13;;;1.60;;
6523;SDS011;3295;38.928;-77.052;2023-08-31T10:33:30;1.77;;;1.40;;
6523;SDS011;3295;38.928;-77.052;2023-08-31T10:35:59;1.40;;;1.30;;
6523;SDS011;3295;38.928;-77.052;2023-08-31T10:38:27;1.47;;;1.30;;
6523;SDS011;3295;38.928;-77.052;2023-08-31T10:43:44;1.20;;;1.10;;
6523;SDS011;3295;38.928;-77.052;2023-08-31T10:46:15;1.20;;;1.10;;
6523;SDS011;3295;38.928;-77.052;2023-08-31T10:48:52;2.37;;;1.50;;
6523;SDS011;3295;38.928;-77.052;2023-08-31T10:51:22;1.80;;;1.40;;
6523;SDS011;3295;38.928;-77.052;2023-08-31T10:53:50;1.90;;;1.50;;
6523;SDS011;3295;38.928;-77.052;2023-08-31T10:56:18;1.60;;;1.30;;
6523;SDS011;3295;38.928;-77.052;2023-08-31T10:58:57;1.87;;;1.40;;
6523;SDS011;3295;38.928;-77.052;2023-08-31T11:04:09;2.00;;;1.40;;
6523;SDS011;3295;38.928;-77.052;2023-08-31T11:06:38;1.97;;;1.40;;
6523;SDS011;3295;38.928;-77.052;2023-08-31T11:09:05;1.87;;;1.40;;
6523;SDS011;3295;38.928;-77.052;2023-08-31T11:11:37;1.70;;;1.37;;
6523;SDS011;3295;38.928;-77.052;2023-08-31T11:14:04;1.67;;;1.40;;
6523;SDS011;3295;38.928;-77.052;2023-08-31T11:16:31;2.27;;;1.40;;
6523;SDS011;3295;38.928;-77.052;2023-08-31T11:18:58;1.80;;;1.60;;
6523;SDS011;3295;38.928;-77.052;2023-08-31T11:21:25;1.97;;;1.50;;
6523;SDS011;3295;38.928;-77.052;2023-08-31T11:23:54;2.03;;;1.50;;
6523;SDS011;3295;38.928;-77.052;2023-08-31T11:26:23;2.27;;;1.30;;
6523;SDS011;3295;38.928;-77.052;2023-08-31T11:28:51;1.90;;;1.43;;
6523;SDS011;3295;38.928;-77.052;2023-08-31T11:31:23;2.20;;;1.47;;
6523;SDS011;3295;38.928;-77.052;2023-08-31T11:33:50;1.70;;;1.40;;
6523;SDS011;3295;38.928;-77.052;2023-08-31T11:36:17;1.60;;;1.40;;
6523;SDS011;3295;38.928;-77.052;2023-08-31T11:38:44;2.00;;;1.30;;
6523;SDS011;3295;38.928;-77.052;2023-08-31T11:41:13;1.53;;;1.40;;
6523;SDS011;3295;38.928;-77.052;2023-08-31T11:43:40;1.60;;;1.23;;
6523;SDS011;3295;38.928;-77.052;2023-08-31T11:46:08;2.27;;;1.50;;
6523;SDS011;3295;38.928;-77.052;2023-08-31T11:48:35;1.60;;;1.40;;
6523;SDS011;3295;38.928;-77.052;2023-08-31T11:51:02;2.17;;;1.20;;
6523;SDS011;3295;38.928;-77.052;2023-08-31T11:53:29;2.97;;;1.70;;
6523;SDS011;3295;38.928;-77.052;2023-08-31T11:55:57;1.50;;;1.30;;
6523;SDS011;3295;38.928;-77.052;2023-08-31T11:58:27;1.97;;;1.50;;
6523;SDS011;3295;38.928;-77.052;2023-08-31T12:00:54;1.87;;;1.50;;
6523;SDS011;3295;38.928;-77.052;2023-08-31T12:03:21;2.40;;;1.50;;
6523;SDS011;3295;38.928;-77.052;2023-08-31T12:05:50;2.10;;;1.57;;
6523;SDS011;3295;38.928;-77.052;2023-08-31T12:08:23;1.73;;;1.40;;
6523;SDS011;3295;38.928;-77.052;2023-08-31T12:10:50;2.27;;;1.57;;
6523;SDS011;3295;38.928;-77.052;2023-08-31T12:13:18;1.87;;;1.50;;
6523;SDS011;3295;38.928;-77.052;2023-08-31T12:15:46;2.10;;;1.40;;
6523;SDS011;3295;38.928;-77.052;2023-08-31T12:18:14;1.43;;;1.30;;
6523;SDS011;3295;38.928;-77.052;2023-08-31T12:20:44;1.77;;;1.50;;
6523;SDS011;3295;38.928;-77.052;2023-08-31T12:23:11;1.90;;;1.53;;
6523;SDS011;3295;38.928;-77.052;2023-08-31T12:25:45;1.67;;;1.40;;
6523;SDS011;3295;38.928;-77.052;2023-08-31T12:28:12;1.93;;;1.40;;
6523;SDS011;3295;38.928;-77.052;2023-08-31T12:30:41;7.67;;;3.10;;
6523;SDS011;3295;38.928;-77.052;2023-08-31T12:33:10;3.13;;;2.07;;
6523;SDS011;3295;38.928;-77.052;2023-08-31T12:35:38;2.10;;;1.60;;
6523;SDS011;3295;38.928;-77.052;2023-08-31T12:38:05;1.90;;;1.30;;
6523;SDS011;3295;38.928;-77.052;2023-08-31T12:40:32;1.93;;;1.53;;
6523;SDS011;3295;38.928;-77.052;2023-08-31T12:42:59;1.80;;;1.50;;
6523;SDS011;3295;38.928;-77.052;2023-08-31T12:45:27;2.20;;;1.60;;
6523;SDS011;3295;38.928;-77.052;2023-08-31T12:47:54;1.77;;;1.43;;
6523;SDS011;3295;38.928;-77.052;2023-08-31T12:50:22;1.90;;;1.50;;
6523;SDS011;3295;38.928;-77.052;2023-08-31T12:52:50;1.63;;;1.40;;
6523;SDS011;3295;38.928;-77.052;2023-08-31T12:55:17;2.07;;;1.60;;
6523;SDS011;3295;38.928;-77.052;2023-08-31T12:57:45;1.70;;;1.40;;
6523;SDS011;3295;38.928;-77.052;2023-08-31T13:00:14;1.83;;;1.40;;
6523;SDS011;3295;38.928;-77.052;2023-08-31T13:02:42;4.10;;;1.60;;
6523;SDS011;3295;38.928;-77.052;2023-08-31T13:05:10;1.60;;;1.20;;
6523;SDS011;3295;38.928;-77.052;2023-08-31T13:07:39;1.80;;;1.40;;
6523;SDS011;3295;38.928;-77.052;2023-08-31T13:10:06;1.93;;;1.40;;
6523;SDS011;3295;38.928;-77.052;2023-08-31T13:12:33;2.00;;;1.60;;
6523;SDS011;3295;38.928;-77.052;2023-08-31T13:15:02;2.13;;;1.40;;
6523;SDS011;3295;38.928;-77.052;2023-08-31T13:17:29;3.03;;;1.40;;
6523;SDS011;3295;38.928;-77.052;2023-08-31T13:19:56;1.77;;;1.30;;
6523;SDS011;3295;38.928;-77.052;2023-08-31T13:22:24;1.33;;;1.20;;
6523;SDS011;3295;38.928;-77.052;2023-08-31T13:24:53;2.17;;;1.30;;
6523;SDS011;3295;38.928;-77.052;2023-08-31T13:27:20;2.00;;;1.20;;
6523;SDS011;3295;38.928;-77.052;2023-08-31T13:29:47;1.93;;;1.47;;
6523;SDS011;3295;38.928;-77.052;2023-08-31T13:32:14;1.90;;;1.20;;
6523;SDS011;3295;38.928;-77.052;2023-08-31T13:34:41;1.60;;;1.37;;
6523;SDS011;3295;38.928;-77.052;2023-08-31T13:37:08;1.53;;;1.40;;
6523;SDS011;3295;38.928;-77.052;2023-08-31T13:39:36;4.30;;;1.50;;
6523;SDS011;3295;38.928;-77.052;2023-08-31T13:42:07;1.80;;;1.30;;
6523;SDS011;3295;38.928;-77.052;2023-08-31T13:44:34;2.07;;;1.40;;
6523;SDS011;3295;38.928;-77.052;2023-08-31T13:47:02;1.70;;;1.20;;
6523;SDS011;3295;38.928;-77.052;2023-08-31T13:49:30;1.77;;;1.43;;
6523;SDS011;3295;38.928;-77.052;2023-08-31T13:51:59;2.20;;;1.20;;
6523;SDS011;3295;38.928;-77.052;2023-08-31T13:54:26;1.50;;;1.40;;
6523;SDS011;3295;38.928;-77.052;2023-08-31T13:56:53;2.23;;;1.47;;
6523;SDS011;3295;38.928;-77.052;2023-08-31T13:59:21;1.37;;;1.27;;
6523;SDS011;3295;38.928;-77.052;2023-08-31T14:01:48;1.53;;;1.10;;
6523;SDS011;3295;38.928;-77.052;2023-08-31T14:04:16;1.40;;;1.30;;
6523;SDS011;3295;38.928;-77.052;2023-08-31T14:06:43;1.50;;;1.30;;
6523;SDS011;3295;38.928;-77.052;2023-08-31T14:09:10;3.33;;;1.40;;
6523;SDS011;3295;38.928;-77.052;2023-08-31T14:11:38;2.13;;;1.50;;
6523;SDS011;3295;38.928;-77.052;2023-08-31T14:14:05;2.87;;;1.43;;
6523;SDS011;3295;38.928;-77.052;2023-08-31T14:16:37;1.63;;;1.30;;
6523;SDS011;3295;38.928;-77.052;2023-08-31T14:19:04;1.90;;;1.27;;
6523;SDS011;3295;38.928;-77.052;2023-08-31T14:21:31;2.57;;;1.23;;
6523;SDS011;3295;38.928;-77.052;2023-08-31T14:23:59;1.87;;;1.33;;
6523;SDS011;3295;38.928;-77.052;2023-08-31T14:26:26;2.37;;;1.50;;
6523;SDS011;3295;38.928;-77.052;2023-08-31T14:28:53;2.07;;;1.30;;
6523;SDS011;3295;38.928;-77.052;2023-08-31T14:31:20;2.47;;;1.53;;
6523;SDS011;3295;38.928;-77.052;2023-08-31T14:33:49;1.93;;;1.40;;
6523;SDS011;3295;38.928;-77.052;2023-08-31T14:36:17;2.00;;;1.37;;
6523;SDS011;3295;38.928;-77.052;2023-08-31T14:38:44;1.60;;;1.30;;
6523;SDS011;3295;38.928;-77.052;2023-08-31T14:41:12;1.83;;;1.40;;
6523;SDS011;3295;38.928;-77.052;2023-08-31T14:43:39;1.67;;;1.33;;
6523;SDS011;3295;38.928;-77.052;2023-08-31T14:46:06;1.67;;;1.30;;
6523;SDS011;3295;38.928;-77.052;2023-08-31T14:48:33;3.10;;;1.33;;
6523;SDS011;3295;38.928;-77.052;2023-08-31T14:51:02;1.80;;;1.43;;
6523;SDS011;3295;38.928;-77.052;2023-08-31T14:53:29;2.23;;;1.40;;
6523;SDS011;3295;38.928;-77.052;2023-08-31T14:55:56;1.80;;;1.30;;
6523;SDS011;3295;38.928;-77.052;2023-08-31T14:58:23;2.17;;;1.27;;
6523;SDS011;3295;38.928;-77.052;2023-08-31T15:00:50;1.40;;;1.10;;